Terminal Aerodrome Forecast
Issued by NWS

Current Version | Previous Version | Text Only | Print | Product List | Glossary Off
Versions: 1 2 3 4 5 6 7 8 9 10 11 12 13 14 15 16

000
FTUS41 KPBZ 251724
TAFMGW
TAF
KMGW 251724Z 2518/2618 24006KT P6SM FEW050 SCT250
     FM260800 18004KT P6SM VCSH BKN070
     FM261200 20005KT P6SM BKN050
     FM261600 22007KT P6SM BKN080=

USA.gov is the U.S. government's official web portal to all federal, state and local government web resources and services.